Time;durP1;ratioP1;P1;durP2;ratioP2;P2;SDS_P1;SDS_P2;PMS_P1;PMS_P2;Temp;Humidity;BMP_temperature;BMP_pressure;BME280_temperature;BME280_humidity;BME280_pressure;Samples;Min_cycle;Max_cycle;Signal;HPM_P1;HPM_P2
2022/06/15 00:01:19;;;;;;;6.53;2.97;;;;;;;22.50;44.02;102085.88;5033642;28;20034;-69
2022/06/15 00:03:45;;;;;;;9.93;3.78;;;;;;;22.74;42.92;102074.38;5033127;28;20466;-69
2022/06/15 00:06:21;;;;;;;7.65;3.33;;;;;;;22.89;42.27;102080.66;5033668;28;20167;-69
2022/06/15 00:08:51;;;;;;;5.80;3.83;;;;;;;22.55;43.35;102082.28;5033533;28;20067;-69
2022/06/15 00:11:19;;;;;;;;;;;;;;;22.46;43.50;102076.56;5033900;28;20124;-69
2022/06/15 00:13:45;;;;;;;6.60;2.95;;;;;;;22.44;43.23;102072.44;5034722;28;19919;-69
2022/06/15 00:16:11;;;;;;;5.68;3.38;;;;;;;22.39;43.89;102075.16;5034352;28;20022;-70
2022/06/15 00:18:37;;;;;;;11.45;3.50;;;;;;;22.29;44.09;102067.75;5034335;28;20034;-69
2022/06/15 00:21:03;;;;;;;6.63;3.38;;;;;;;;;;5034219;28;20377;-68
2022/06/15 00:23:30;;;;;;;5.35;3.20;;;;;;;22.22;44.00;102066.41;5034244;28;20375;-70
2022/06/15 00:25:56;;;;;;;6.88;3.63;;;;;;;22.10;44.69;102065.84;5034357;28;20033;-70
2022/06/15 00:28:22;;;;;;;9.70;3.65;;;;;;;22.21;43.46;102062.84;5033754;28;20389;-68
2022/06/15 00:30:51;;;;;;;6.18;4.03;;;;;;;22.17;44.19;102074.63;5034237;28;20102;-69
2022/06/15 00:33:19;;;;;;;8.68;3.30;;;;;;;22.06;44.67;102073.78;5033262;28;20037;-69
2022/06/15 00:35:57;;;;;;;7.95;3.78;;;;;;;22.05;45.27;102071.31;5033509;28;20029;-68
2022/06/15 00:38:29;;;;;;;9.77;3.28;;;;;;;21.85;45.01;102077.56;5033483;28;20504;-68
2022/06/15 00:40:55;;;;;;;8.68;4.28;;;;;;;21.90;44.79;102079.47;5033548;28;20025;-68
2022/06/15 00:43:42;;;;;;;7.20;3.75;;;;;;;21.85;44.96;102083.06;5032995;28;20068;-70
2022/06/15 00:46:13;;;;;;;5.43;3.65;;;;;;;21.79;44.99;102084.09;5033192;28;20064;-69
2022/06/15 00:48:40;;;;;;;9.38;3.70;;;;;;;22.07;44.78;102086.38;5032968;28;20049;-68
2022/06/15 00:51:06;;;;;;;10.07;4.10;;;;;;;21.89;44.77;102084.16;5014947;28;20033;-69
2022/06/15 00:53:32;;;;;;;5.28;3.40;;;;;;;21.85;44.97;102074.84;5032899;28;20113;-68
2022/06/15 00:55:57;;;;;;;6.03;3.58;;;;;;;21.86;45.23;102071.00;5033415;28;20411;-69
2022/06/15 00:58:23;;;;;;;9.77;4.22;;;;;;;21.95;44.65;102077.59;5033459;28;20037;-69
2022/06/15 01:00:53;;;;;;;5.38;3.58;;;;;;;21.81;44.90;102073.72;5033244;28;20030;-68
2022/06/15 01:03:18;;;;;;;9.18;4.45;;;;;;;21.80;44.89;102066.56;5033278;28;20509;-69
2022/06/15 01:06:22;;;;;;;8.98;4.82;;;;;;;21.82;44.89;102072.63;5033115;28;20083;-68
2022/06/15 01:09:07;;;;;;;6.15;4.53;;;;;;;21.81;44.47;102066.34;4971964;28;20050;-68
2022/06/15 01:11:55;;;;;;;9.35;4.75;;;;;;;21.90;44.59;102061.16;4971619;28;20090;-68
2022/06/15 01:14:45;;;;;;;12.38;4.30;;;;;;;21.79;44.73;102068.50;4971678;28;20053;-69
2022/06/15 01:17:38;;;;;;;8.52;4.28;;;;;;;21.69;44.73;102070.38;4971646;28;20042;-70
2022/06/15 01:20:23;;;;;;;9.52;4.70;;;;;;;21.61;44.76;102063.50;4972158;28;20046;-69
2022/06/15 01:23:08;;;;;;;5.05;4.13;;;;;;;21.64;44.95;102067.63;4971265;28;20050;-69
2022/06/15 01:25:49;;;;;;;9.43;4.40;;;;;;;21.81;44.56;102071.00;4971873;28;20058;-69
2022/06/15 01:28:50;;;;;;;9.30;4.45;;;;;;;21.46;45.37;102068.13;4971767;28;20155;-69
2022/06/15 01:31:43;;;;;;;9.98;4.28;;;;;;;21.48;45.11;102071.41;4971574;28;20042;-69
2022/06/15 01:34:22;;;;;;;9.70;4.45;;;;;;;21.57;45.12;102073.34;4971537;28;20046;-68
2022/06/15 01:36:56;;;;;;;6.40;4.03;;;;;;;21.57;44.70;102062.41;4971492;28;20109;-69
2022/06/15 01:39:32;;;;;;;7.57;4.10;;;;;;;21.65;44.61;102061.06;4971335;28;20053;-69
2022/06/15 01:42:03;;;;;;;8.32;4.53;;;;;;;21.26;45.97;102060.66;4971467;28;20356;-69
2022/06/15 01:44:36;;;;;;;6.32;3.50;;;;;;;21.02;46.29;102064.88;4981668;28;20038;-68
2022/06/15 01:47:05;;;;;;;4.78;4.03;;;;;;;20.96;46.48;102065.91;5013115;28;20049;-68
2022/06/15 01:49:38;;;;;;;10.10;4.45;;;;;;;20.94;46.34;102060.72;5013204;28;20041;-69
2022/06/15 01:52:07;;;;;;;8.95;4.50;;;;;;;21.08;45.95;102065.72;5011453;28;20054;-69
2022/06/15 01:54:39;;;;;;;8.18;5.22;;;;;;;20.90;46.49;102065.06;5012977;28;20042;-69
2022/06/15 01:57:25;;;;;;;8.93;4.30;;;;;;;20.91;46.40;102057.69;5012480;28;20045;-69
2022/06/15 01:59:58;;;;;;;15.63;5.20;;;;;;;20.84;46.69;102057.91;5012855;28;20049;-69
2022/06/15 02:02:32;;;;;;;12.50;5.03;;;;;;;20.73;47.08;102056.22;5012852;28;20036;-68
2022/06/15 02:05:20;;;;;;;9.75;4.50;;;;;;;20.54;47.86;102054.16;5013198;28;20696;-69
2022/06/15 02:07:54;;;;;;;9.07;4.15;;;;;;;20.91;46.59;102057.69;4993147;28;20046;-69
2022/06/15 02:10:29;;;;;;;9.20;4.78;;;;;;;20.49;48.00;102049.47;4992786;28;20400;-69
2022/06/15 02:13:21;;;;;;;6.60;5.00;;;;;;;20.57;48.34;102049.00;4992829;28;20061;-69
2022/06/15 02:15:51;;;;;;;11.32;5.70;;;;;;;20.64;47.51;102046.00;4991938;28;20038;-69
2022/06/15 02:18:20;;;;;;;9.82;5.63;;;;;;;20.81;46.84;102046.69;4992139;28;20475;-69
2022/06/15 02:20:58;;;;;;;8.73;4.85;;;;;;;20.82;46.45;102040.97;5003395;28;20084;-68
2022/06/15 02:23:27;;;;;;;6.88;4.18;;;;;;;20.88;46.69;102036.34;5011903;28;20474;-69
2022/06/15 02:25:53;;;;;;;7.50;4.53;;;;;;;20.77;46.96;102040.94;5011899;28;20029;-69
2022/06/15 02:28:23;;;;;;;7.20;4.47;;;;;;;20.67;47.32;102037.31;5011314;28;20484;-68
2022/06/15 02:30:50;;;;;;;6.65;4.25;;;;;;;20.44;47.98;102033.03;5011705;28;20413;-69
2022/06/15 02:33:30;;;;;;;6.68;4.32;;;;;;;20.45;48.32;102031.97;5011368;28;20133;-69
2022/06/15 02:35:57;;;;;;;;;;;;;;;20.46;47.86;102035.53;5012017;28;20629;-70
2022/06/15 02:38:22;;;;;;;6.50;5.25;;;;;;;20.43;47.53;102025.09;5011323;28;20002;-68
2022/06/15 02:40:48;;;;;;;6.30;4.50;;;;;;;20.57;47.61;102027.13;5011818;28;20069;-69
2022/06/15 02:43:17;;;;;;;14.77;5.75;;;;;;;20.54;47.40;102032.31;5011230;28;20645;-69
2022/06/15 02:45:43;;;;;;;12.55;5.15;;;;;;;20.44;47.71;102029.50;5011255;28;20030;-69
2022/06/15 02:48:09;;;;;;;9.45;5.53;;;;;;;20.27;48.16;102021.44;5011349;28;20038;-69
2022/06/15 02:50:52;;;;;;;8.00;6.07;;;;;;;20.33;48.16;102025.03;5011541;28;20521;-69
2022/06/15 02:53:22;;;;;;;12.65;5.47;;;;;;;20.12;48.84;102033.03;5011187;28;20292;-69
2022/06/15 02:55:49;;;;;;;9.98;5.55;;;;;;;20.34;48.25;102030.25;5011713;28;20097;-68
2022/06/15 02:58:32;;;;;;;7.00;4.60;;;;;;;20.38;47.40;102019.63;5011282;28;20413;-69
2022/06/15 03:00:58;;;;;;;12.10;5.53;;;;;;;20.38;47.81;102025.09;5010992;28;20148;-68
2022/06/15 03:03:24;;;;;;;6.97;5.63;;;;;;;20.16;48.60;102019.69;5010846;28;20414;-68
2022/06/15 03:05:50;;;;;;;9.07;4.97;;;;;;;20.13;47.83;102018.28;5011001;28;20042;-70
2022/06/15 03:08:17;;;;;;;8.27;5.13;;;;;;;20.24;48.30;102024.69;5010882;28;20030;-70
2022/06/15 03:10:43;;;;;;;10.68;5.38;;;;;;;20.17;48.24;102018.59;5009949;28;20034;-68
2022/06/15 03:13:27;;;;;;;9.43;5.05;;;;;;;20.17;49.01;102032.22;5010875;28;20421;-68
2022/06/15 03:15:56;;;;;;;9.80;5.43;;;;;;;20.21;47.81;102022.47;5010998;28;20052;-68
2022/06/15 03:18:22;;;;;;;10.17;5.20;;;;;;;20.09;48.66;102019.06;4991344;28;20034;-68
2022/06/15 03:20:48;;;;;;;7.40;5.75;;;;;;;20.22;48.16;102015.94;5003403;28;20048;-69
2022/06/15 03:23:13;;;;;;;11.23;5.40;;;;;;;20.11;48.04;102012.25;5010948;28;20433;-69
2022/06/15 03:25:39;;;;;;;6.32;5.47;;;;;;;20.13;48.20;102009.28;5011280;28;20034;-68
2022/06/15 03:28:05;;;;;;;10.13;5.47;;;;;;;20.04;48.48;102019.03;5010742;28;20489;-68
2022/06/15 03:30:30;;;;;;;8.90;6.13;;;;;;;20.15;48.37;102023.47;5010930;28;20033;-68
2022/06/15 03:32:55;;;;;;;9.73;5.95;;;;;;;20.19;47.88;102012.88;5010891;28;20067;-69
2022/06/15 03:35:21;;;;;;;11.85;5.20;;;;;;;20.07;48.26;102008.41;5010930;28;20053;-70
2022/06/15 03:37:49;;;;;;;9.27;5.30;;;;;;;19.97;49.11;102008.31;5011326;28;20436;-69
2022/06/15 03:40:15;;;;;;;9.52;5.38;;;;;;;19.97;49.06;102011.03;5010864;28;20100;-68
2022/06/15 03:42:40;;;;;;;9.32;5.72;;;;;;;20.11;48.88;102004.06;5010787;28;20038;-69
2022/06/15 03:45:07;;;;;;;10.60;5.68;;;;;;;20.11;48.16;102005.97;5011476;28;20406;-68
2022/06/15 03:47:32;;;;;;;9.02;5.78;;;;;;;20.31;47.61;102002.63;5014058;28;20100;-68
2022/06/15 03:49:58;;;;;;;13.52;6.57;;;;;;;20.31;47.83;102013.53;5014650;28;20030;-68
2022/06/15 03:52:26;;;;;;;11.85;5.60;;;;;;;20.20;48.75;102009.09;5014067;28;20061;-68
2022/06/15 03:54:51;;;;;;;8.07;5.30;;;;;;;19.74;50.16;102016.81;5014330;28;20042;-69
2022/06/15 03:57:35;;;;;;;9.45;6.30;;;;;;;20.10;49.49;102016.09;5014007;28;20108;-69
2022/06/15 04:00:00;;;;;;;11.70;5.53;;;;;;;20.15;49.20;102021.59;5014089;28;20520;-69
2022/06/15 04:02:26;;;;;;;8.73;5.88;;;;;;;20.14;48.64;102013.66;5012197;28;20034;-68
2022/06/15 04:04:51;;;;;;;10.73;6.47;;;;;;;20.19;48.77;102023.81;5011420;28;20042;-68
2022/06/15 04:10:02;;;;;;;15.73;6.70;;;;;;;20.25;48.51;102029.06;5006806;28;20033;-69
2022/06/15 04:12:27;;;;;;;7.90;5.20;;;;;;;20.13;48.75;102034.66;5013428;28;20042;-68
2022/06/15 04:14:52;;;;;;;12.13;6.95;;;;;;;20.24;48.42;102023.88;4999471;28;20056;-70
2022/06/15 04:17:18;;;;;;;14.23;6.13;;;;;;;20.17;48.20;102018.59;5013448;28;20045;-69
2022/06/15 04:19:44;;;;;;;10.80;6.18;;;;;;;20.20;48.69;102036.41;5014093;28;20111;-69
2022/06/15 04:22:09;;;;;;;9.63;5.97;;;;;;;20.08;49.48;102034.63;5013512;28;20456;-68
2022/06/15 04:24:34;;;;;;;15.75;6.80;;;;;;;20.28;48.47;102030.47;5013509;28;20033;-69
2022/06/15 04:27:00;;;;;;;13.07;6.13;;;;;;;20.19;49.25;102032.00;5013318;28;20041;-68
2022/06/15 04:29:26;;;;;;;8.90;6.15;;;;;;;20.31;48.25;102029.91;5013422;28;20389;-69
2022/06/15 04:31:51;;;;;;;9.48;5.85;;;;;;;20.43;48.04;102038.75;5013773;28;20030;-70
2022/06/15 04:34:17;;;;;;;12.73;6.53;;;;;;;20.42;47.85;102039.84;5013014;28;20464;-69
2022/06/15 04:36:44;;;;;;;9.95;6.65;;;;;;;20.48;48.14;102036.09;5013373;28;20022;-69
2022/06/15 04:39:11;;;;;;;12.32;6.85;;;;;;;20.11;48.79;102036.00;5011958;28;20042;-68
2022/06/15 04:41:38;;;;;;;9.65;5.57;;;;;;;20.38;48.45;102033.28;5013310;28;20033;-69
2022/06/15 04:44:10;;;;;;;10.25;5.88;;;;;;;20.50;48.18;102040.19;5013426;28;20136;-69
2022/06/15 04:46:36;;;;;;;9.00;6.65;;;;;;;20.41;48.43;102040.94;5013203;28;20132;-69
2022/06/15 04:49:03;;;;;;;14.82;6.03;;;;;;;20.52;47.67;102035.28;5012989;28;20040;-68
2022/06/15 04:51:29;;;;;;;10.45;5.45;;;;;;;20.59;48.62;102037.78;5012849;28;20046;-69
2022/06/15 04:53:57;;;;;;;9.77;5.40;;;;;;;20.33;48.94;102031.31;5012739;28;20037;-69
2022/06/15 04:56:24;;;;;;;8.70;5.40;;;;;;;20.30;48.68;102039.22;5012025;28;20030;-67
2022/06/15 04:58:49;;;;;;;8.30;5.15;;;;;;;20.62;48.28;102037.25;5012551;28;20025;-69
2022/06/15 05:01:15;;;;;;;11.40;6.43;;;;;;;20.60;48.48;102044.91;5012709;28;20042;-70
2022/06/15 05:03:41;;;;;;;13.63;6.07;;;;;;;20.68;47.90;102045.22;5012667;28;20045;-69
2022/06/15 05:06:17;;;;;;;9.48;5.75;;;;;;;20.66;47.80;102039.22;5012747;28;20092;-71
2022/06/15 05:08:42;;;;;;;11.70;5.72;;;;;;;20.62;48.41;102043.56;5012545;28;20118;-69
2022/06/15 05:11:08;;;;;;;8.23;5.90;;;;;;;20.49;48.24;102037.72;5012522;28;20129;-69
2022/06/15 05:13:33;;;;;;;15.35;6.20;;;;;;;20.60;47.60;102034.78;5012758;28;20104;-70
2022/06/15 05:15:59;;;;;;;11.45;6.63;;;;;;;20.64;47.94;102029.63;5012275;28;20042;-70
2022/06/15 05:18:24;;;;;;;10.27;6.15;;;;;;;20.89;47.50;102032.53;5012497;28;20042;-72
2022/06/15 05:20:49;;;;;;;9.68;6.00;;;;;;;21.14;46.68;102031.88;5012583;28;20026;-69
2022/06/15 05:23:16;;;;;;;9.10;6.10;;;;;;;20.85;47.69;102029.50;4994282;28;20056;-68
2022/06/15 05:25:42;;;;;;;14.60;6.53;;;;;;;21.07;46.91;102031.28;5013088;28;20022;-70
2022/06/15 05:28:09;;;;;;;6.85;5.40;;;;;;;20.99;47.13;102027.13;5011441;28;20127;-70
2022/06/15 05:30:35;;;;;;;9.05;5.78;;;;;;;21.21;47.16;102024.25;5011711;28;20506;-69
2022/06/15 05:33:01;;;;;;;13.15;6.38;;;;;;;21.12;46.92;102026.66;5011736;28;20037;-69
2022/06/15 05:35:27;;;;;;;9.15;6.80;;;;;;;21.18;46.39;102033.81;5012244;28;20402;-71
2022/06/15 05:37:53;;;;;;;9.00;6.20;;;;;;;21.43;46.50;102027.59;5012595;28;20030;-69
2022/06/15 05:40:18;;;;;;;9.75;5.97;;;;;;;21.47;46.89;102029.53;5011160;28;20096;-68
2022/06/15 05:42:44;;;;;;;14.85;6.15;;;;;;;21.66;46.46;102029.88;5007312;28;20025;-69
2022/06/15 05:45:27;;;;;;;9.32;6.45;;;;;;;21.58;45.77;102035.88;5011468;28;20038;-70
2022/06/15 05:47:53;;;;;;;12.27;6.43;;;;;;;21.67;45.71;102034.25;5011925;28;20048;-71
2022/06/15 05:50:18;;;;;;;11.32;6.03;;;;;;;21.36;46.40;102037.97;5012170;28;20129;-72
2022/06/15 05:52:44;;;;;;;13.10;6.07;;;;;;;21.27;46.85;102040.41;5012077;28;20030;-72
2022/06/15 05:55:09;;;;;;;14.13;6.70;;;;;;;21.60;46.49;102039.97;5011567;28;20034;-71
2022/06/15 05:57:35;;;;;;;7.00;5.05;;;;;;;21.61;47.09;102038.91;5011214;28;20084;-71
2022/06/15 06:00:03;;;;;;;8.77;5.40;;;;;;;21.28;46.58;102035.75;5011048;28;20045;-72
2022/06/15 06:02:29;;;;;;;14.35;5.70;;;;;;;21.54;46.71;102037.50;5010851;28;20457;-70
2022/06/15 06:04:54;;;;;;;9.43;5.50;;;;;;;21.64;46.86;102032.06;5011270;28;20084;-73
2022/06/15 06:07:21;;;;;;;8.45;5.53;;;;;;;21.85;46.68;102033.78;5010993;28;20034;-72
2022/06/15 06:09:47;;;;;;;8.60;5.28;;;;;;;21.91;45.85;102029.97;5010780;28;20413;-68
2022/06/15 06:12:13;;;;;;;8.75;5.35;;;;;;;21.98;46.14;102035.16;5010996;28;20034;-69
2022/06/15 06:14:38;;;;;;;10.85;5.35;;;;;;;21.82;46.25;102029.66;5010684;28;20037;-71
2022/06/15 06:17:05;;;;;;;8.93;4.97;;;;;;;22.13;46.62;102026.97;5012229;28;20205;-71
2022/06/15 06:19:31;;;;;;;11.25;4.88;;;;;;;22.27;45.99;102028.88;5010803;28;20038;-70
2022/06/15 06:21:56;;;;;;;12.73;5.10;;;;;;;22.54;43.97;102029.41;5010999;28;20112;-69
2022/06/15 06:24:22;;;;;;;8.32;5.10;;;;;;;22.66;44.32;102027.22;5010704;28;20107;-69
2022/06/15 06:26:47;;;;;;;9.93;5.40;;;;;;;22.99;43.60;102033.19;5010714;28;20145;-69
2022/06/15 06:29:14;;;;;;;10.05;5.32;;;;;;;23.07;42.93;102032.63;5010439;28;20429;-69
2022/06/15 06:31:40;;;;;;;8.45;5.05;;;;;;;23.24;43.32;102033.09;5011219;28;20049;-69
2022/06/15 06:34:06;;;;;;;5.88;4.32;;;;;;;22.94;44.36;102041.44;5010657;28;20046;-69
2022/06/15 06:36:34;;;;;;;7.18;4.60;;;;;;;22.57;44.78;102039.84;5010039;28;20466;-69
2022/06/15 06:39:03;;;;;;;9.07;4.43;;;;;;;22.91;43.65;102040.06;5010078;28;20026;-68
2022/06/15 06:41:30;;;;;;;8.98;4.50;;;;;;;22.96;43.90;102042.00;5009260;28;20124;-69
2022/06/15 06:43:56;;;;;;;8.00;4.28;;;;;;;22.41;44.95;102049.16;5007919;28;20030;-70
2022/06/15 06:46:22;;;;;;;7.68;4.20;;;;;;;23.00;43.34;102041.13;4992202;28;20041;-68
2022/06/15 06:48:48;;;;;;;11.85;5.13;;;;;;;23.32;42.55;102044.34;5010123;28;20436;-72
2022/06/15 06:51:14;;;;;;;7.30;5.13;;;;;;;23.65;42.05;102040.06;5010372;28;20057;-72
2022/06/15 06:53:39;;;;;;;8.50;4.55;;;;;;;23.47;42.30;102044.28;4992867;28;20117;-71
2022/06/15 06:56:07;;;;;;;8.23;3.80;;;;;;;23.65;41.94;102050.22;5010889;28;20038;-71
2022/06/15 06:58:33;;;;;;;10.43;3.47;;;;;;;23.68;42.30;102046.91;5013450;28;20116;-62
2022/06/15 07:00:59;;;;;;;12.40;4.55;;;;;;;23.88;41.87;102061.31;5024380;28;20410;-61
2022/06/15 07:03:25;;;;;;;8.95;4.05;;;;;;;24.07;41.48;102056.03;5014089;28;20064;-61
2022/06/15 07:05:50;;;;;;;8.38;4.20;;;;;;;23.96;41.53;102054.44;5030224;28;20034;-61
2022/06/15 07:08:16;;;;;;;9.98;4.03;;;;;;;24.42;40.36;102051.09;5029992;28;20549;-61
2022/06/15 07:10:42;;;;;;;8.95;4.88;;;;;;;24.35;40.36;102055.28;5030468;28;20045;-61
2022/06/15 07:13:08;;;;;;;15.70;5.20;;;;;;;24.40;40.42;102064.28;5024460;28;20045;-61
2022/06/15 07:15:34;;;;;;;13.13;4.30;;;;;;;24.97;39.55;102068.16;4991960;28;20117;-60
2022/06/15 07:18:01;;;;;;;11.23;4.50;;;;;;;24.63;40.13;102070.16;5010028;28;20478;-60
2022/06/15 07:20:30;;;;;;;7.80;3.63;;;;;;;24.76;39.01;102061.25;5027814;28;20472;-62
2022/06/15 07:22:56;;;;;;;7.97;3.42;;;;;;;25.05;39.02;102062.03;5013335;28;20042;-63
2022/06/15 07:25:21;;;;;;;6.72;3.33;;;;;;;25.25;38.66;102064.56;5011854;28;20038;-61
2022/06/15 07:27:48;;;;;;;5.45;3.30;;;;;;;24.62;39.03;102068.50;5013181;28;20398;-62
2022/06/15 07:30:17;;;;;;;9.63;3.22;;;;;;;25.18;37.59;102069.56;5012759;28;20502;-60
2022/06/15 07:32:43;;;;;;;10.07;2.95;;;;;;;25.32;37.64;102075.22;5012572;28;20041;-60
2022/06/15 07:35:21;;;;;;;7.10;3.10;;;;;;;25.66;37.79;102079.47;5013739;28;20030;-62
2022/06/15 07:37:47;;;;;;;10.52;3.50;;;;;;;25.73;37.24;102088.16;5011128;28;20030;-61
2022/06/15 07:40:14;;;;;;;5.88;3.25;;;;;;;25.74;37.24;102078.81;5013148;28;20398;-61
2022/06/15 07:42:41;;;;;;;8.13;3.35;;;;;;;25.74;37.17;102080.72;4995402;28;20379;-59
2022/06/15 07:45:07;;;;;;;5.50;3.45;;;;;;;24.96;38.38;102075.59;5012825;28;20034;-61
2022/06/15 07:50:17;;;;;;;5.22;3.03;;;;;;;25.25;37.83;102079.13;5013498;28;20100;-62
2022/06/15 07:52:46;;;;;;;7.97;3.55;;;;;;;25.81;36.98;102076.50;4996174;28;20030;-59
2022/06/15 07:55:15;;;;;;;5.82;2.83;;;;;;;26.22;36.43;102067.66;5013469;28;20111;-59
2022/06/15 07:57:41;;;;;;;10.32;2.55;;;;;;;26.04;36.56;102081.09;5011215;28;20125;-61
2022/06/15 08:00:09;;;;;;;9.35;2.50;;;;;;;26.02;35.50;102074.28;5012944;28;20057;-62
2022/06/15 08:02:35;;;;;;;4.63;2.25;;;;;;;26.24;35.57;102074.50;5013408;28;20592;-60
2022/06/15 08:05:00;;;;;;;5.90;2.88;;;;;;;25.66;35.92;102075.88;5014253;28;20014;-61
2022/06/15 08:07:26;;;;;;;6.30;2.72;;;;;;;26.39;35.21;102068.75;5013487;28;20121;-61
2022/06/15 08:09:51;;;;;;;10.07;2.83;;;;;;;25.60;35.55;102074.31;5013670;28;20513;-61
2022/06/15 08:12:19;;;;;;;10.57;2.85;;;;;;;26.21;34.30;102072.34;5013373;28;20034;-61
2022/06/15 08:14:57;;;;;;;6.95;2.15;;;;;;;26.70;33.94;102074.53;5013581;28;20030;-61
2022/06/15 08:17:47;;;;;;;6.53;2.22;;;;;;;26.11;34.10;102067.00;5012621;28;20173;-61
2022/06/15 08:20:22;;;;;;;8.38;2.70;;;;;;;26.85;33.67;102072.34;5011723;28;20062;-61
2022/06/15 08:22:51;;;;;;;7.95;1.75;;;;;;;26.53;32.11;102077.06;5012694;28;20065;-61
2022/06/15 08:25:21;;;;;;;5.00;1.90;;;;;;;26.68;31.89;102074.03;5013474;28;20045;-62
2022/06/15 08:27:46;;;;;;;5.93;1.98;;;;;;;26.24;33.18;102077.25;5013402;28;20100;-61
2022/06/15 08:30:13;;;;;;;4.47;2.42;;;;;;;26.89;32.23;102076.16;5013197;28;20042;-71
2022/06/15 08:32:40;;;;;;;8.77;2.33;;;;;;;26.89;31.73;102065.09;5013165;28;20405;-70
2022/06/15 08:35:06;;;;;;;5.45;1.70;;;;;;;26.70;31.53;102063.50;5014037;28;20029;-71
2022/06/15 08:37:32;;;;;;;4.43;1.67;;;;;;;26.77;30.59;102064.78;5013227;28;20604;-71
2022/06/15 08:39:58;;;;;;;2.72;0.95;;;;;;;26.83;30.90;102071.00;5012813;28;20037;-70
2022/06/15 08:42:26;;;;;;;5.60;1.42;;;;;;;27.07;29.48;102068.06;5013367;28;20113;-71
2022/06/15 08:45:01;;;;;;;4.47;1.30;;;;;;;27.55;29.95;102061.88;5013052;28;20033;-70
2022/06/15 08:47:50;;;;;;;5.85;1.98;;;;;;;27.64;29.74;102060.00;5013042;28;20045;-70
2022/06/15 08:50:52;;;;;;;5.03;1.27;;;;;;;27.63;30.52;102074.13;5013167;28;20053;-71
2022/06/15 08:53:25;;;;;;;4.45;1.20;;;;;;;27.87;28.78;102062.81;4951829;29;20046;-71
2022/06/15 08:56:02;;;;;;;3.35;1.17;;;;;;;27.13;30.69;102056.63;4935259;29;20034;-72
2022/06/15 08:58:40;;;;;;;4.63;1.33;;;;;;;27.84;29.49;102061.50;4951243;29;20058;-71
2022/06/15 09:01:21;;;;;;;5.18;1.30;;;;;;;27.77;29.98;102061.09;4951550;29;20035;-71
2022/06/15 09:04:02;;;;;;;3.60;1.48;;;;;;;27.83;29.92;102067.34;4935194;29;20099;-69
2022/06/15 09:06:42;;;;;;;3.22;1.30;;;;;;;28.37;28.93;102061.63;4951379;29;20606;-72
2022/06/15 09:09:29;;;;;;;4.73;1.70;;;;;;;27.70;29.33;102066.22;4950992;29;20054;-71
2022/06/15 09:15:20;;;;;;;5.80;1.38;;;;;;;28.12;29.22;102060.31;4950768;29;20083;-70
2022/06/15 09:17:49;;;;;;;4.70;1.30;;;;;;;28.26;29.64;102074.06;4950889;29;20494;-70
2022/06/15 09:20:28;;;;;;;3.13;1.02;;;;;;;28.22;28.26;102068.34;4950710;29;20420;-72
2022/06/15 09:23:00;;;;;;;4.05;1.30;;;;;;;28.58;28.16;102077.41;4951791;29;20055;-73
2022/06/15 09:25:41;;;;;;;10.95;1.52;;;;;;;28.22;27.70;102071.13;4951800;29;20035;-72
2022/06/15 09:28:14;;;;;;;2.85;1.40;;;;;;;27.98;28.43;102073.34;4951743;29;20511;-72
2022/06/15 09:30:41;;;;;;;3.10;1.05;;;;;;;27.57;29.36;102065.13;5005789;28;20121;-73
2022/06/15 09:33:10;;;;;;;3.50;1.15;;;;;;;28.61;28.68;102074.03;4993198;28;20144;-72
2022/06/15 09:35:44;;;;;;;6.05;1.60;;;;;;;27.97;29.08;102071.69;4994741;28;20034;-72
2022/06/15 09:38:13;;;;;;;5.75;2.40;;;;;;;28.57;28.72;102064.72;5012769;28;20490;-73
2022/06/15 09:40:41;;;;;;;5.10;1.70;;;;;;;27.67;29.18;102064.94;5012782;28;20022;-73
2022/06/15 09:43:14;;;;;;;8.75;1.90;;;;;;;28.67;28.99;102052.56;5012086;28;20401;-72
2022/06/15 09:46:08;;;;;;;5.65;2.08;;;;;;;28.17;28.24;102062.94;5012680;28;20498;-71
2022/06/15 09:48:34;;;;;;;7.57;1.85;;;;;;;28.39;28.42;102056.59;5004258;28;20626;-71
2022/06/15 09:51:11;;;;;;;4.85;1.52;;;;;;;28.50;28.42;102060.75;5011204;28;20168;-73
2022/06/15 09:53:48;;;;;;;6.95;1.55;;;;;;;28.43;28.33;102061.19;5011829;28;20551;-72
2022/06/15 09:56:17;;;;;;;3.13;1.20;;;;;;;28.87;26.37;102057.56;5014243;28;20033;-72
2022/06/15 09:58:54;;;;;;;2.45;1.25;;;;;;;29.34;27.60;102055.97;5012455;28;20041;-72
2022/06/15 10:01:21;;;;;;;5.55;1.50;;;;;;;29.73;26.55;102052.31;5010892;28;20086;-71
2022/06/15 10:03:51;;;;;;;4.18;1.20;;;;;;;29.56;26.46;102046.72;5011785;28;20042;-72
2022/06/15 10:06:25;;;;;;;7.85;1.67;;;;;;;29.42;26.70;102033.81;4994156;28;20052;-72
2022/06/15 10:08:51;;;;;;;3.75;1.48;;;;;;;29.48;25.99;102037.28;5011775;28;20034;-71
2022/06/15 10:11:42;;;;;;;6.07;1.73;;;;;;;28.46;27.74;102035.66;5011219;28;20092;-72
2022/06/15 10:14:36;;;;;;;3.75;1.30;;;;;;;29.20;26.53;102036.72;5011611;28;20037;-70
2022/06/15 10:17:30;;;;;;;3.58;1.27;;;;;;;30.22;25.83;102029.63;5012232;28;20109;-72
2022/06/15 10:19:57;;;;;;;4.50;1.55;;;;;;;29.63;25.34;102033.19;4950611;29;20635;-72
2022/06/15 10:22:29;;;;;;;3.17;1.20;;;;;;;29.94;24.74;102029.16;4950530;29;20059;-73
2022/06/15 10:24:58;;;;;;;3.22;1.38;;;;;;;30.08;25.15;102024.28;4950815;29;20039;-72
2022/06/15 10:27:23;;;;;;;7.28;2.22;;;;;;;29.06;26.51;102021.31;4950466;29;20055;-72
2022/06/15 10:30:02;;;;;;;5.35;1.48;;;;;;;29.57;25.39;102027.00;4950415;29;20460;-72
2022/06/15 10:32:30;;;;;;;8.27;1.98;;;;;;;29.33;27.17;102016.38;4950631;29;20046;-73
2022/06/15 10:35:18;;;;;;;5.32;1.58;;;;;;;29.95;25.52;102018.91;4951121;29;20175;-72
2022/06/15 10:37:47;;;;;;;3.70;1.25;;;;;;;30.99;24.65;102010.84;4970284;28;20070;-73
2022/06/15 10:40:25;;;;;;;4.88;1.75;;;;;;;30.99;23.86;102015.59;4969211;28;20062;-71
2022/06/15 10:42:55;;;;;;;2.58;0.93;;;;;;;30.21;24.48;102008.59;4969736;28;20047;-71
2022/06/15 10:45:34;;;;;;;3.95;1.88;;;;;;;29.87;24.24;102008.63;4969426;28;20039;-72
2022/06/15 10:48:06;;;;;;;4.78;1.75;;;;;;;30.24;25.85;102007.94;4969197;28;20533;-72
2022/06/15 10:50:58;;;;;;;3.13;1.33;;;;;;;29.89;24.59;102006.34;4969680;28;20414;-70
2022/06/15 10:53:26;;;;;;;3.17;1.10;;;;;;;29.74;26.04;102010.41;4969611;28;20066;-71
2022/06/15 11:02:07;;;;;;;2.03;0.80;;;;;;;30.94;23.31;102010.19;5030829;28;20517;-72
2022/06/15 11:04:56;;;;;;;4.28;1.35;;;;;;;31.83;23.71;102012.59;5023218;28;20128;-71
2022/06/15 11:07:21;;;;;;;2.30;1.13;;;;;;;31.49;24.23;102001.75;5031441;28;20133;-71
2022/06/15 11:09:56;;;;;;;4.95;1.63;;;;;;;31.83;24.45;102005.06;5034052;28;20212;-72
2022/06/15 11:12:43;;;;;;;5.05;1.42;;;;;;;31.83;23.96;101998.69;5033919;28;20030;-71
2022/06/15 11:15:17;;;;;;;2.63;1.00;;;;;;;32.45;23.43;102002.19;5034740;28;20548;-71
2022/06/15 11:18:01;;;;;;;4.95;1.50;;;;;;;32.08;23.31;101997.66;5034499;28;20033;-72
2022/06/15 11:20:47;;;;;;;6.78;1.85;;;;;;;31.94;23.81;102005.50;5034370;28;20471;-72
2022/06/15 11:23:25;;;;;;;4.45;1.52;;;;;;;31.73;23.66;102002.69;5028798;28;20041;-69
2022/06/15 11:26:52;;;;;;;3.90;1.27;;;;;;;31.26;23.82;101989.28;5037758;28;20036;-69
2022/06/15 11:28:55;;;;;;;2.75;1.20;;;;;;;31.63;22.83;101993.94;5034341;28;20045;-69
2022/06/15 11:31:22;;;;;;;4.88;1.45;;;;;;;31.93;23.49;101992.72;5027880;28;20419;-71
2022/06/15 11:33:53;;;;;;;4.43;1.30;;;;;;;30.83;24.33;101997.81;5030266;28;20041;-69
2022/06/15 11:36:34;;;;;;;2.95;1.15;;;;;;;31.83;22.75;101999.50;5034149;28;20039;-71
2022/06/15 11:39:03;;;;;;;5.72;1.30;;;;;;;32.36;22.84;102004.25;5032396;28;20025;-69
2022/06/15 11:41:42;;;;;;;3.38;1.10;;;;;;;32.10;23.50;101997.34;5034078;28;20090;-70
2022/06/15 11:44:14;;;;;;;4.55;1.30;;;;;;;32.58;22.69;101986.34;5034523;28;20511;-69
2022/06/15 11:47:02;;;;;;;2.75;1.00;;;;;;;33.12;21.24;101998.91;5034134;28;20497;-70
2022/06/15 11:49:58;;;;;;;8.10;2.00;;;;;;;32.77;22.46;101995.75;5028779;28;20037;-69
2022/06/15 11:52:54;;;;;;;2.92;0.95;;;;;;;32.11;21.11;101991.41;5033642;28;20048;-69
2022/06/15 11:55:41;;;;;;;3.45;1.10;;;;;;;32.52;22.14;101987.72;5024286;28;20033;-69
2022/06/15 11:58:34;;;;;;;2.55;0.80;;;;;;;32.43;22.38;101984.22;5033931;28;20041;-69